sensor_id;sensor_type;location;lat;lon;timestamp;P1;durP1;ratioP1;P2;durP2;ratioP2
11052;SDS011;55230;42.602;23.470;2022-09-21T00:01:21;5.27;;;4.13;;
11052;SDS011;55230;42.602;23.470;2022-09-21T00:03:52;4.70;;;4.30;;
11052;SDS011;55230;42.602;23.470;2022-09-21T00:06:20;5.57;;;4.27;;
11052;SDS011;55230;42.602;23.470;2022-09-21T00:08:48;4.40;;;4.07;;
11052;SDS011;55230;42.602;23.470;2022-09-21T00:11:16;4.27;;;3.97;;
11052;SDS011;55230;42.602;23.470;2022-09-21T00:13:44;4.60;;;4.20;;
11052;SDS011;55230;42.602;23.470;2022-09-21T00:16:12;4.63;;;3.93;;
11052;SDS011;55230;42.602;23.470;2022-09-21T00:18:40;3.23;;;2.93;;
11052;SDS011;55230;42.602;23.470;2022-09-21T00:21:09;4.83;;;3.20;;
11052;SDS011;55230;42.602;23.470;2022-09-21T00:23:37;3.20;;;2.93;;
11052;SDS011;55230;42.602;23.470;2022-09-21T00:26:05;3.70;;;3.40;;
11052;SDS011;55230;42.602;23.470;2022-09-21T00:28:34;3.70;;;3.40;;
11052;SDS011;55230;42.602;23.470;2022-09-21T00:31:01;3.80;;;3.50;;
11052;SDS011;55230;42.602;23.470;2022-09-21T00:33:28;4.47;;;4.17;;
11052;SDS011;55230;42.602;23.470;2022-09-21T00:35:55;4.10;;;3.70;;
11052;SDS011;55230;42.602;23.470;2022-09-21T00:38:28;3.83;;;3.53;;
11052;SDS011;55230;42.602;23.470;2022-09-21T00:40:54;3.50;;;3.20;;
11052;SDS011;55230;42.602;23.470;2022-09-21T00:43:21;3.33;;;3.10;;
11052;SDS011;55230;42.602;23.470;2022-09-21T00:45:48;3.10;;;2.87;;
11052;SDS011;55230;42.602;23.470;2022-09-21T00:48:19;3.10;;;2.90;;
11052;SDS011;55230;42.602;23.470;2022-09-21T00:50:47;4.17;;;2.87;;
11052;SDS011;55230;42.602;23.470;2022-09-21T00:53:18;3.50;;;3.20;;
11052;SDS011;55230;42.602;23.470;2022-09-21T00:55:48;4.37;;;3.97;;
11052;SDS011;55230;42.602;23.470;2022-09-21T00:58:21;4.67;;;4.10;;
11052;SDS011;55230;42.602;23.470;2022-09-21T01:00:51;6.47;;;4.90;;
11052;SDS011;55230;42.602;23.470;2022-09-21T01:03:18;7.53;;;6.13;;
11052;SDS011;55230;42.602;23.470;2022-09-21T01:05:45;6.57;;;5.97;;
11052;SDS011;55230;42.602;23.470;2022-09-21T01:08:12;6.57;;;5.93;;
11052;SDS011;55230;42.602;23.470;2022-09-21T01:10:44;8.90;;;6.67;;
11052;SDS011;55230;42.602;23.470;2022-09-21T01:13:24;6.50;;;5.67;;
11052;SDS011;55230;42.602;23.470;2022-09-21T01:16:02;7.20;;;6.07;;
11052;SDS011;55230;42.602;23.470;2022-09-21T01:18:40;7.73;;;6.97;;
11052;SDS011;55230;42.602;23.470;2022-09-21T01:21:16;7.37;;;6.23;;
11052;SDS011;55230;42.602;23.470;2022-09-21T01:24:00;8.17;;;6.60;;
11052;SDS011;55230;42.602;23.470;2022-09-21T01:27:01;7.17;;;6.40;;
11052;SDS011;55230;42.602;23.470;2022-09-21T01:29:56;7.77;;;6.87;;
11052;SDS011;55230;42.602;23.470;2022-09-21T01:32:27;7.40;;;6.70;;
11052;SDS011;55230;42.602;23.470;2022-09-21T01:34:58;7.87;;;6.90;;
11052;SDS011;55230;42.602;23.470;2022-09-21T01:37:31;7.17;;;6.47;;
11052;SDS011;55230;42.602;23.470;2022-09-21T01:40:04;7.00;;;6.23;;
11052;SDS011;55230;42.602;23.470;2022-09-21T01:42:35;6.53;;;5.93;;
11052;SDS011;55230;42.602;23.470;2022-09-21T01:45:06;6.50;;;5.80;;
11052;SDS011;55230;42.602;23.470;2022-09-21T01:47:36;5.60;;;5.10;;
11052;SDS011;55230;42.602;23.470;2022-09-21T01:50:08;5.30;;;4.63;;
11052;SDS011;55230;42.602;23.470;2022-09-21T01:52:39;4.23;;;3.83;;
11052;SDS011;55230;42.602;23.470;2022-09-21T01:55:12;3.53;;;3.23;;
11052;SDS011;55230;42.602;23.470;2022-09-21T01:57:43;3.40;;;3.10;;
11052;SDS011;55230;42.602;23.470;2022-09-21T02:00:19;4.20;;;3.80;;
11052;SDS011;55230;42.602;23.470;2022-09-21T02:02:47;5.10;;;3.20;;
11052;SDS011;55230;42.602;23.470;2022-09-21T02:05:18;3.67;;;3.37;;
11052;SDS011;55230;42.602;23.470;2022-09-21T02:07:47;4.40;;;4.00;;
11052;SDS011;55230;42.602;23.470;2022-09-21T02:10:17;6.27;;;5.67;;
11052;SDS011;55230;42.602;23.470;2022-09-21T02:12:47;7.33;;;5.90;;
11052;SDS011;55230;42.602;23.470;2022-09-21T02:15:20;5.57;;;4.90;;
11052;SDS011;55230;42.602;23.470;2022-09-21T02:17:55;6.13;;;5.50;;
11052;SDS011;55230;42.602;23.470;2022-09-21T02:20:31;6.47;;;5.87;;
11052;SDS011;55230;42.602;23.470;2022-09-21T02:23:04;6.37;;;5.77;;
11052;SDS011;55230;42.602;23.470;2022-09-21T02:25:38;6.20;;;5.50;;
11052;SDS011;55230;42.602;23.470;2022-09-21T02:28:10;6.60;;;6.00;;
11052;SDS011;55230;42.602;23.470;2022-09-21T02:30:49;6.73;;;6.03;;
11052;SDS011;55230;42.602;23.470;2022-09-21T02:33:23;6.90;;;6.20;;
11052;SDS011;55230;42.602;23.470;2022-09-21T02:35:57;7.43;;;5.90;;
11052;SDS011;55230;42.602;23.470;2022-09-21T02:38:30;7.60;;;5.73;;
11052;SDS011;55230;42.602;23.470;2022-09-21T02:41:01;7.90;;;6.80;;
11052;SDS011;55230;42.602;23.470;2022-09-21T02:43:33;8.30;;;7.50;;
11052;SDS011;55230;42.602;23.470;2022-09-21T02:46:07;7.17;;;6.47;;
11052;SDS011;55230;42.602;23.470;2022-09-21T02:48:39;7.47;;;6.10;;
11052;SDS011;55230;42.602;23.470;2022-09-21T02:51:13;7.00;;;6.37;;
11052;SDS011;55230;42.602;23.470;2022-09-21T02:53:42;7.10;;;6.40;;
11052;SDS011;55230;42.602;23.470;2022-09-21T02:56:12;6.33;;;5.73;;
11052;SDS011;55230;42.602;23.470;2022-09-21T02:58:41;6.67;;;5.97;;
11052;SDS011;55230;42.602;23.470;2022-09-21T03:01:12;6.63;;;6.03;;
11052;SDS011;55230;42.602;23.470;2022-09-21T03:03:40;7.10;;;6.40;;
11052;SDS011;55230;42.602;23.470;2022-09-21T03:06:07;6.93;;;6.27;;
11052;SDS011;55230;42.602;23.470;2022-09-21T03:08:34;7.87;;;6.10;;
11052;SDS011;55230;42.602;23.470;2022-09-21T03:11:00;5.93;;;5.33;;
11052;SDS011;55230;42.602;23.470;2022-09-21T03:13:27;7.97;;;5.73;;
11052;SDS011;55230;42.602;23.470;2022-09-21T03:15:58;5.70;;;5.20;;
11052;SDS011;55230;42.602;23.470;2022-09-21T03:18:27;4.77;;;4.37;;
11052;SDS011;55230;42.602;23.470;2022-09-21T03:20:54;43.27;;;28.77;;
11052;SDS011;55230;42.602;23.470;2022-09-21T03:23:20;7.60;;;6.63;;
11052;SDS011;55230;42.602;23.470;2022-09-21T03:25:48;6.00;;;5.10;;
11052;SDS011;55230;42.602;23.470;2022-09-21T03:28:16;5.07;;;4.60;;
11052;SDS011;55230;42.602;23.470;2022-09-21T03:30:44;4.77;;;4.27;;
11052;SDS011;55230;42.602;23.470;2022-09-21T03:33:11;5.27;;;4.77;;
11052;SDS011;55230;42.602;23.470;2022-09-21T03:35:39;4.70;;;4.30;;
11052;SDS011;55230;42.602;23.470;2022-09-21T03:38:06;4.73;;;4.33;;
11052;SDS011;55230;42.602;23.470;2022-09-21T03:40:34;5.50;;;4.60;;
11052;SDS011;55230;42.602;23.470;2022-09-21T03:43:00;4.90;;;4.50;;
11052;SDS011;55230;42.602;23.470;2022-09-21T03:45:27;6.90;;;4.90;;
11052;SDS011;55230;42.602;23.470;2022-09-21T03:47:55;5.97;;;5.23;;
11052;SDS011;55230;42.602;23.470;2022-09-21T03:50:22;6.00;;;5.40;;
11052;SDS011;55230;42.602;23.470;2022-09-21T03:52:51;8.97;;;6.53;;
11052;SDS011;55230;42.602;23.470;2022-09-21T03:55:18;6.57;;;5.93;;
11052;SDS011;55230;42.602;23.470;2022-09-21T03:57:44;8.37;;;7.20;;
11052;SDS011;55230;42.602;23.470;2022-09-21T04:00:11;7.20;;;6.40;;
11052;SDS011;55230;42.602;23.470;2022-09-21T04:02:40;8.17;;;6.03;;
11052;SDS011;55230;42.602;23.470;2022-09-21T04:05:07;5.30;;;4.87;;
11052;SDS011;55230;42.602;23.470;2022-09-21T04:07:35;5.50;;;4.90;;
11052;SDS011;55230;42.602;23.470;2022-09-21T04:10:04;4.40;;;4.10;;
11052;SDS011;55230;42.602;23.470;2022-09-21T04:12:32;4.93;;;4.53;;
11052;SDS011;55230;42.602;23.470;2022-09-21T04:15:00;5.17;;;4.57;;
11052;SDS011;55230;42.602;23.470;2022-09-21T04:17:28;4.80;;;4.37;;
11052;SDS011;55230;42.602;23.470;2022-09-21T04:19:55;5.80;;;4.00;;
11052;SDS011;55230;42.602;23.470;2022-09-21T04:22:22;4.37;;;3.60;;
11052;SDS011;55230;42.602;23.470;2022-09-21T04:24:49;5.27;;;4.37;;
11052;SDS011;55230;42.602;23.470;2022-09-21T04:27:17;4.60;;;3.90;;
11052;SDS011;55230;42.602;23.470;2022-09-21T04:29:44;5.47;;;4.20;;
11052;SDS011;55230;42.602;23.470;2022-09-21T04:32:11;4.03;;;3.73;;
11052;SDS011;55230;42.602;23.470;2022-09-21T04:34:38;4.40;;;3.80;;
11052;SDS011;55230;42.602;23.470;2022-09-21T04:37:05;4.37;;;3.80;;
11052;SDS011;55230;42.602;23.470;2022-09-21T04:39:32;6.33;;;4.07;;
11052;SDS011;55230;42.602;23.470;2022-09-21T04:41:59;5.67;;;3.50;;
11052;SDS011;55230;42.602;23.470;2022-09-21T04:44:28;4.43;;;3.67;;
11052;SDS011;55230;42.602;23.470;2022-09-21T04:46:55;4.37;;;3.97;;
11052;SDS011;55230;42.602;23.470;2022-09-21T04:49:22;5.13;;;3.60;;
11052;SDS011;55230;42.602;23.470;2022-09-21T04:51:49;3.23;;;3.03;;
11052;SDS011;55230;42.602;23.470;2022-09-21T04:54:16;3.67;;;3.17;;
11052;SDS011;55230;42.602;23.470;2022-09-21T04:56:43;3.20;;;3.00;;
11052;SDS011;55230;42.602;23.470;2022-09-21T04:59:09;3.10;;;2.80;;
11052;SDS011;55230;42.602;23.470;2022-09-21T05:01:37;4.63;;;2.77;;
11052;SDS011;55230;42.602;23.470;2022-09-21T05:04:04;21.33;;;14.53;;
11052;SDS011;55230;42.602;23.470;2022-09-21T05:06:32;3.10;;;2.80;;
11052;SDS011;55230;42.602;23.470;2022-09-21T05:08:59;3.17;;;2.97;;
11052;SDS011;55230;42.602;23.470;2022-09-21T05:11:43;3.90;;;2.70;;
11052;SDS011;55230;42.602;23.470;2022-09-21T05:14:10;4.90;;;4.03;;
11052;SDS011;55230;42.602;23.470;2022-09-21T05:16:38;8.10;;;4.77;;
11052;SDS011;55230;42.602;23.470;2022-09-21T05:19:05;7.80;;;4.53;;
11052;SDS011;55230;42.602;23.470;2022-09-21T05:21:32;5.60;;;4.37;;
11052;SDS011;55230;42.602;23.470;2022-09-21T05:24:00;9.30;;;4.97;;
11052;SDS011;55230;42.602;23.470;2022-09-21T05:26:27;5.80;;;5.20;;
11052;SDS011;55230;42.602;23.470;2022-09-21T05:28:54;5.33;;;4.67;;
11052;SDS011;55230;42.602;23.470;2022-09-21T05:31:26;6.03;;;5.03;;
11052;SDS011;55230;42.602;23.470;2022-09-21T05:34:02;6.30;;;5.30;;
11052;SDS011;55230;42.602;23.470;2022-09-21T05:36:35;5.97;;;5.37;;
11052;SDS011;55230;42.602;23.470;2022-09-21T05:39:10;5.80;;;5.20;;
11052;SDS011;55230;42.602;23.470;2022-09-21T05:41:38;5.57;;;5.07;;
11052;SDS011;55230;42.602;23.470;2022-09-21T05:44:05;5.97;;;5.37;;
11052;SDS011;55230;42.602;23.470;2022-09-21T05:46:35;5.17;;;4.67;;
11052;SDS011;55230;42.602;23.470;2022-09-21T05:53:07;6.40;;;5.30;;
11052;SDS011;55230;42.602;23.470;2022-09-21T05:55:47;5.57;;;4.83;;
11052;SDS011;55230;42.602;23.470;2022-09-21T05:58:20;6.60;;;6.00;;
11052;SDS011;55230;42.602;23.470;2022-09-21T06:00:56;7.37;;;5.40;;
11052;SDS011;55230;42.602;23.470;2022-09-21T06:03:37;6.77;;;5.70;;
11052;SDS011;55230;42.602;23.470;2022-09-21T06:06:07;9.80;;;6.67;;
11052;SDS011;55230;42.602;23.470;2022-09-21T06:08:36;6.87;;;5.03;;
11052;SDS011;55230;42.602;23.470;2022-09-21T06:11:03;8.47;;;5.20;;
11052;SDS011;55230;42.602;23.470;2022-09-21T06:13:30;6.97;;;5.40;;
11052;SDS011;55230;42.602;23.470;2022-09-21T06:15:56;6.73;;;4.60;;
11052;SDS011;55230;42.602;23.470;2022-09-21T06:18:27;5.47;;;4.63;;
11052;SDS011;55230;42.602;23.470;2022-09-21T06:20:54;7.00;;;5.20;;
11052;SDS011;55230;42.602;23.470;2022-09-21T06:23:21;6.13;;;5.00;;
11052;SDS011;55230;42.602;23.470;2022-09-21T06:25:51;5.30;;;4.80;;
11052;SDS011;55230;42.602;23.470;2022-09-21T06:28:18;6.23;;;5.47;;
11052;SDS011;55230;42.602;23.470;2022-09-21T06:30:49;7.90;;;6.37;;
11052;SDS011;55230;42.602;23.470;2022-09-21T06:33:16;6.70;;;5.40;;
11052;SDS011;55230;42.602;23.470;2022-09-21T06:35:50;7.03;;;5.40;;
11052;SDS011;55230;42.602;23.470;2022-09-21T06:38:18;7.47;;;5.73;;
11052;SDS011;55230;42.602;23.470;2022-09-21T06:40:45;5.90;;;5.30;;
11052;SDS011;55230;42.602;23.470;2022-09-21T06:43:13;8.27;;;6.27;;
11052;SDS011;55230;42.602;23.470;2022-09-21T06:45:40;5.73;;;4.63;;
11052;SDS011;55230;42.602;23.470;2022-09-21T06:48:07;5.93;;;4.63;;
11052;SDS011;55230;42.602;23.470;2022-09-21T06:50:34;6.33;;;5.63;;
11052;SDS011;55230;42.602;23.470;2022-09-21T06:53:01;9.73;;;6.97;;
11052;SDS011;55230;42.602;23.470;2022-09-21T06:55:29;6.00;;;4.43;;
11052;SDS011;55230;42.602;23.470;2022-09-21T06:58:00;7.43;;;6.03;;
11052;SDS011;55230;42.602;23.470;2022-09-21T07:00:28;6.73;;;4.70;;
11052;SDS011;55230;42.602;23.470;2022-09-21T07:02:55;6.57;;;4.80;;
11052;SDS011;55230;42.602;23.470;2022-09-21T07:05:23;7.57;;;6.00;;
11052;SDS011;55230;42.602;23.470;2022-09-21T07:07:49;6.20;;;4.70;;
11052;SDS011;55230;42.602;23.470;2022-09-21T07:10:16;7.37;;;5.40;;
11052;SDS011;55230;42.602;23.470;2022-09-21T07:12:43;5.93;;;5.37;;
11052;SDS011;55230;42.602;23.470;2022-09-21T07:15:10;6.17;;;5.03;;
11052;SDS011;55230;42.602;23.470;2022-09-21T07:17:38;5.80;;;4.73;;
11052;SDS011;55230;42.602;23.470;2022-09-21T07:20:07;5.90;;;5.40;;
11052;SDS011;55230;42.602;23.470;2022-09-21T07:22:34;5.40;;;4.60;;
11052;SDS011;55230;42.602;23.470;2022-09-21T07:25:02;5.57;;;4.70;;
11052;SDS011;55230;42.602;23.470;2022-09-21T07:27:30;8.60;;;5.87;;
11052;SDS011;55230;42.602;23.470;2022-09-21T07:29:57;6.63;;;4.73;;
11052;SDS011;55230;42.602;23.470;2022-09-21T07:32:24;7.90;;;5.53;;
11052;SDS011;55230;42.602;23.470;2022-09-21T07:34:52;8.10;;;5.73;;
11052;SDS011;55230;42.602;23.470;2022-09-21T07:37:20;9.60;;;5.67;;
11052;SDS011;55230;42.602;23.470;2022-09-21T07:39:47;3.00;;;2.50;;
11052;SDS011;55230;42.602;23.470;2022-09-21T07:42:14;10.27;;;4.13;;
11052;SDS011;55230;42.602;23.470;2022-09-21T07:44:41;4.77;;;2.50;;
11052;SDS011;55230;42.602;23.470;2022-09-21T07:47:08;7.90;;;4.97;;
11052;SDS011;55230;42.602;23.470;2022-09-21T07:49:37;5.73;;;4.73;;
11052;SDS011;55230;42.602;23.470;2022-09-21T07:52:05;5.70;;;3.53;;
11052;SDS011;55230;42.602;23.470;2022-09-21T07:54:33;2.90;;;2.70;;
11052;SDS011;55230;42.602;23.470;2022-09-21T07:57:01;3.97;;;3.20;;
11052;SDS011;55230;42.602;23.470;2022-09-21T07:59:45;4.03;;;3.63;;
11052;SDS011;55230;42.602;23.470;2022-09-21T08:02:12;3.33;;;3.03;;
11052;SDS011;55230;42.602;23.470;2022-09-21T08:04:39;6.17;;;3.70;;
11052;SDS011;55230;42.602;23.470;2022-09-21T08:07:07;5.27;;;4.77;;
11052;SDS011;55230;42.602;23.470;2022-09-21T08:09:33;2.77;;;2.57;;
11052;SDS011;55230;42.602;23.470;2022-09-21T08:12:00;4.70;;;4.23;;
11052;SDS011;55230;42.602;23.470;2022-09-21T08:14:27;4.43;;;4.03;;
11052;SDS011;55230;42.602;23.470;2022-09-21T08:16:54;3.80;;;3.10;;
11052;SDS011;55230;42.602;23.470;2022-09-21T08:19:21;4.87;;;4.07;;
11052;SDS011;55230;42.602;23.470;2022-09-21T08:21:49;3.13;;;2.70;;
11052;SDS011;55230;42.602;23.470;2022-09-21T08:24:18;3.17;;;2.70;;
11052;SDS011;55230;42.602;23.470;2022-09-21T08:26:45;5.07;;;3.77;;
11052;SDS011;55230;42.602;23.470;2022-09-21T08:29:12;4.50;;;3.40;;
11052;SDS011;55230;42.602;23.470;2022-09-21T08:31:39;4.80;;;3.60;;
11052;SDS011;55230;42.602;23.470;2022-09-21T08:34:07;5.97;;;3.80;;
11052;SDS011;55230;42.602;23.470;2022-09-21T08:36:34;4.63;;;3.50;;
11052;SDS011;55230;42.602;23.470;2022-09-21T08:39:00;4.43;;;2.57;;
11052;SDS011;55230;42.602;23.470;2022-09-21T08:41:32;7.83;;;4.47;;
11052;SDS011;55230;42.602;23.470;2022-09-21T08:44:12;6.67;;;4.57;;
11052;SDS011;55230;42.602;23.470;2022-09-21T08:46:47;4.67;;;3.37;;
11052;SDS011;55230;42.602;23.470;2022-09-21T08:49:26;5.63;;;4.07;;
11052;SDS011;55230;42.602;23.470;2022-09-21T08:51:55;7.03;;;3.60;;
11052;SDS011;55230;42.602;23.470;2022-09-21T08:54:26;7.33;;;5.33;;
11052;SDS011;55230;42.602;23.470;2022-09-21T08:57:01;4.07;;;3.37;;
11052;SDS011;55230;42.602;23.470;2022-09-21T08:59:28;2.80;;;2.60;;
11052;SDS011;55230;42.602;23.470;2022-09-21T09:01:55;4.17;;;3.00;;
11052;SDS011;55230;42.602;23.470;2022-09-21T09:04:36;8.43;;;5.63;;
11052;SDS011;55230;42.602;23.470;2022-09-21T09:07:19;4.83;;;3.60;;
11052;SDS011;55230;42.602;23.470;2022-09-21T09:09:59;2.80;;;2.60;;
11052;SDS011;55230;42.602;23.470;2022-09-21T09:12:36;3.50;;;2.60;;
11052;SDS011;55230;42.602;23.470;2022-09-21T09:15:19;5.77;;;4.17;;
11052;SDS011;55230;42.602;23.470;2022-09-21T09:18:00;2.93;;;2.70;;
11052;SDS011;55230;42.602;23.470;2022-09-21T09:20:34;2.70;;;2.50;;
11052;SDS011;55230;42.602;23.470;2022-09-21T09:23:05;2.33;;;2.13;;
11052;SDS011;55230;42.602;23.470;2022-09-21T09:25:37;4.67;;;2.37;;
11052;SDS011;55230;42.602;23.470;2022-09-21T09:28:12;5.70;;;2.63;;
11052;SDS011;55230;42.602;23.470;2022-09-21T09:30:48;4.80;;;3.10;;
11052;SDS011;55230;42.602;23.470;2022-09-21T09:33:22;3.60;;;2.13;;
11052;SDS011;55230;42.602;23.470;2022-09-21T09:35:51;4.13;;;2.00;;
11052;SDS011;55230;42.602;23.470;2022-09-21T09:38:24;2.30;;;2.00;;
11052;SDS011;55230;42.602;23.470;2022-09-21T09:40:57;1.70;;;1.60;;
11052;SDS011;55230;42.602;23.470;2022-09-21T09:43:40;1.90;;;1.70;;
11052;SDS011;55230;42.602;23.470;2022-09-21T09:46:17;1.87;;;1.70;;
11052;SDS011;55230;42.602;23.470;2022-09-21T09:51:55;2.43;;;2.23;;
11052;SDS011;55230;42.602;23.470;2022-09-21T09:54:23;1.70;;;1.60;;
11052;SDS011;55230;42.602;23.470;2022-09-21T09:56:53;2.53;;;1.90;;
11052;SDS011;55230;42.602;23.470;2022-09-21T09:59:24;3.37;;;2.00;;
11052;SDS011;55230;42.602;23.470;2022-09-21T10:01:59;2.00;;;1.80;;
11052;SDS011;55230;42.602;23.470;2022-09-21T10:04:27;2.20;;;2.00;;
11052;SDS011;55230;42.602;23.470;2022-09-21T10:06:54;1.93;;;1.80;;
11052;SDS011;55230;42.602;23.470;2022-09-21T10:09:25;2.90;;;1.93;;
11052;SDS011;55230;42.602;23.470;2022-09-21T10:11:54;2.70;;;2.00;;
11052;SDS011;55230;42.602;23.470;2022-09-21T10:14:26;2.90;;;2.30;;
11052;SDS011;55230;42.602;23.470;2022-09-21T10:16:57;2.60;;;2.40;;
11052;SDS011;55230;42.602;23.470;2022-09-21T10:19:29;2.50;;;2.30;;
11052;SDS011;55230;42.602;23.470;2022-09-21T10:21:56;2.53;;;2.20;;
11052;SDS011;55230;42.602;23.470;2022-09-21T10:24:25;1.80;;;1.70;;
11052;SDS011;55230;42.602;23.470;2022-09-21T10:26:56;2.57;;;1.70;;
11052;SDS011;55230;42.602;23.470;2022-09-21T10:29:37;1.70;;;1.60;;
11052;SDS011;55230;42.602;23.470;2022-09-21T10:32:16;1.40;;;1.40;;
11052;SDS011;55230;42.602;23.470;2022-09-21T10:34:59;2.50;;;1.80;;
11052;SDS011;55230;42.602;23.470;2022-09-21T10:37:28;2.97;;;1.70;;
11052;SDS011;55230;42.602;23.470;2022-09-21T10:39:58;3.40;;;1.67;;
11052;SDS011;55230;42.602;23.470;2022-09-21T10:42:25;1.50;;;1.40;;
11052;SDS011;55230;42.602;23.470;2022-09-21T10:45:12;1.50;;;1.40;;
11052;SDS011;55230;42.602;23.470;2022-09-21T10:47:40;2.70;;;1.20;;
11052;SDS011;55230;42.602;23.470;2022-09-21T10:50:19;1.73;;;1.60;;
11052;SDS011;55230;42.602;23.470;2022-09-21T10:52:49;1.90;;;1.40;;
11052;SDS011;55230;42.602;23.470;2022-09-21T10:55:21;1.40;;;1.30;;
11052;SDS011;55230;42.602;23.470;2022-09-21T10:57:49;1.43;;;1.33;;
11052;SDS011;55230;42.602;23.470;2022-09-21T11:00:39;1.27;;;1.17;;
11052;SDS011;55230;42.602;23.470;2022-09-21T11:03:32;1.60;;;1.27;;
11052;SDS011;55230;42.602;23.470;2022-09-21T11:06:08;1.10;;;1.10;;
11052;SDS011;55230;42.602;23.470;2022-09-21T11:08:42;4.23;;;1.30;;
11052;SDS011;55230;42.602;23.470;2022-09-21T11:11:23;1.70;;;1.30;;
11052;SDS011;55230;42.602;23.470;2022-09-21T11:13:58;2.70;;;1.37;;
11052;SDS011;55230;42.602;23.470;2022-09-21T11:16:36;1.30;;;1.20;;
11052;SDS011;55230;42.602;23.470;2022-09-21T11:19:12;1.70;;;1.13;;
11052;SDS011;55230;42.602;23.470;2022-09-21T11:21:46;1.27;;;1.07;;
11052;SDS011;55230;42.602;23.470;2022-09-21T11:24:21;1.90;;;1.13;;
11052;SDS011;55230;42.602;23.470;2022-09-21T11:26:54;1.00;;;1.00;;
11052;SDS011;55230;42.602;23.470;2022-09-21T11:29:28;1.23;;;1.20;;
11052;SDS011;55230;42.602;23.470;2022-09-21T11:32:08;2.23;;;1.10;;
11052;SDS011;55230;42.602;23.470;2022-09-21T11:38:04;1.00;;;1.00;;
11052;SDS011;55230;42.602;23.470;2022-09-21T11:40:42;1.00;;;1.00;;
11052;SDS011;55230;42.602;23.470;2022-09-21T11:43:33;1.47;;;1.37;;
11052;SDS011;55230;42.602;23.470;2022-09-21T11:46:15;1.60;;;1.50;;
11052;SDS011;55230;42.602;23.470;2022-09-21T11:48:57;1.70;;;1.40;;
11052;SDS011;55230;42.602;23.470;2022-09-21T11:51:43;2.30;;;1.10;;
11052;SDS011;55230;42.602;23.470;2022-09-21T11:54:27;0.90;;;0.90;;
11052;SDS011;55230;42.602;23.470;2022-09-21T11:57:09;1.07;;;1.07;;
11052;SDS011;55230;42.602;23.470;2022-09-21T12:06:03;1.67;;;1.13;;
11052;SDS011;55230;42.602;23.470;2022-09-21T12:11:40;1.87;;;1.23;;
11052;SDS011;55230;42.602;23.470;2022-09-21T12:14:23;2.73;;;1.17;;
11052;SDS011;55230;42.602;23.470;2022-09-21T12:17:01;2.40;;;1.10;;
11052;SDS011;55230;42.602;23.470;2022-09-21T12:19:38;1.73;;;1.10;;
11052;SDS011;55230;42.602;23.470;2022-09-21T12:22:14;1.63;;;1.10;;
11052;SDS011;55230;42.602;23.470;2022-09-21T12:24:45;0.90;;;0.90;;
11052;SDS011;55230;42.602;23.470;2022-09-21T12:27:18;0.90;;;0.90;;
11052;SDS011;55230;42.602;23.470;2022-09-21T12:29:52;1.20;;;1.10;;
11052;SDS011;55230;42.602;23.470;2022-09-21T12:32:23;2.50;;;1.20;;
11052;SDS011;55230;42.602;23.470;2022-09-21T12:34:55;1.13;;;1.07;;
11052;SDS011;55230;42.602;23.470;2022-09-21T12:37:28;2.03;;;1.17;;
11052;SDS011;55230;42.602;23.470;2022-09-21T12:40:02;3.43;;;1.30;;
11052;SDS011;55230;42.602;23.470;2022-09-21T12:42:33;2.03;;;1.77;;
11052;SDS011;55230;42.602;23.470;2022-09-21T12:45:10;5.93;;;2.70;;
11052;SDS011;55230;42.602;23.470;2022-09-21T12:47:46;2.37;;;1.43;;
11052;SDS011;55230;42.602;23.470;2022-09-21T12:50:18;0.90;;;0.90;;
11052;SDS011;55230;42.602;23.470;2022-09-21T12:52:49;1.10;;;1.10;;
11052;SDS011;55230;42.602;23.470;2022-09-21T12:55:21;2.00;;;1.00;;
11052;SDS011;55230;42.602;23.470;2022-09-21T12:58:00;1.00;;;1.00;;
11052;SDS011;55230;42.602;23.470;2022-09-21T13:00:33;1.20;;;1.10;;
11052;SDS011;55230;42.602;23.470;2022-09-21T13:03:09;1.00;;;0.90;;
11052;SDS011;55230;42.602;23.470;2022-09-21T13:05:42;0.90;;;0.90;;
11052;SDS011;55230;42.602;23.470;2022-09-21T13:08:24;0.80;;;0.80;;
11052;SDS011;55230;42.602;23.470;2022-09-21T13:10:57;2.40;;;1.20;;
11052;SDS011;55230;42.602;23.470;2022-09-21T13:13:29;1.93;;;1.30;;
11052;SDS011;55230;42.602;23.470;2022-09-21T13:15:58;2.67;;;0.70;;
11052;SDS011;55230;42.602;23.470;2022-09-21T13:18:26;1.17;;;1.07;;
11052;SDS011;55230;42.602;23.470;2022-09-21T13:20:56;1.30;;;1.20;;
11052;SDS011;55230;42.602;23.470;2022-09-21T13:23:28;4.80;;;0.87;;
11052;SDS011;55230;42.602;23.470;2022-09-21T13:26:01;1.80;;;1.00;;
11052;SDS011;55230;42.602;23.470;2022-09-21T13:28:40;1.17;;;1.10;;
11052;SDS011;55230;42.602;23.470;2022-09-21T13:31:29;1.80;;;1.10;;
11052;SDS011;55230;42.602;23.470;2022-09-21T13:43:20;1.23;;;0.80;;
11052;SDS011;55230;42.602;23.470;2022-09-21T13:45:53;2.87;;;0.90;;
11052;SDS011;55230;42.602;23.470;2022-09-21T13:48:22;2.60;;;1.00;;
11052;SDS011;55230;42.602;23.470;2022-09-21T13:50:57;1.10;;;1.10;;
11052;SDS011;55230;42.602;23.470;2022-09-21T13:53:31;0.73;;;0.70;;
11052;SDS011;55230;42.602;23.470;2022-09-21T13:56:05;1.07;;;1.03;;
11052;SDS011;55230;42.602;23.470;2022-09-21T13:58:39;0.70;;;0.70;;
11052;SDS011;55230;42.602;23.470;2022-09-21T14:01:17;0.83;;;0.83;;
11052;SDS011;55230;42.602;23.470;2022-09-21T14:03:46;0.97;;;0.87;;
11052;SDS011;55230;42.602;23.470;2022-09-21T14:06:18;7.83;;;1.00;;
11052;SDS011;55230;42.602;23.470;2022-09-21T14:08:49;2.50;;;0.90;;
11052;SDS011;55230;42.602;23.470;2022-09-21T14:11:21;0.83;;;0.83;;
11052;SDS011;55230;42.602;23.470;2022-09-21T14:14:03;0.90;;;0.90;;
11052;SDS011;55230;42.602;23.470;2022-09-21T14:22:32;3.07;;;1.20;;
11052;SDS011;55230;42.602;23.470;2022-09-21T14:25:26;3.43;;;1.50;;
11052;SDS011;55230;42.602;23.470;2022-09-21T14:27:58;1.33;;;0.80;;
11052;SDS011;55230;42.602;23.470;2022-09-21T14:30:32;1.30;;;1.20;;
11052;SDS011;55230;42.602;23.470;2022-09-21T14:33:19;3.90;;;2.10;;
11052;SDS011;55230;42.602;23.470;2022-09-21T14:35:59;1.80;;;1.70;;
11052;SDS011;55230;42.602;23.470;2022-09-21T14:38:34;3.07;;;1.00;;
11052;SDS011;55230;42.602;23.470;2022-09-21T14:41:07;1.23;;;1.10;;
11052;SDS011;55230;42.602;23.470;2022-09-21T14:43:40;2.63;;;1.10;;
11052;SDS011;55230;42.602;23.470;2022-09-21T14:46:19;1.20;;;1.00;;
11052;SDS011;55230;42.602;23.470;2022-09-21T14:48:58;1.73;;;1.23;;
11052;SDS011;55230;42.602;23.470;2022-09-21T14:51:39;1.50;;;1.23;;
11052;SDS011;55230;42.602;23.470;2022-09-21T14:57:17;7.23;;;1.60;;
11052;SDS011;55230;42.602;23.470;2022-09-21T15:00:10;3.57;;;1.50;;
11052;SDS011;55230;42.602;23.470;2022-09-21T15:02:46;3.57;;;1.70;;
11052;SDS011;55230;42.602;23.470;2022-09-21T15:05:21;1.87;;;1.73;;
11052;SDS011;55230;42.602;23.470;2022-09-21T15:08:01;1.80;;;1.70;;
11052;SDS011;55230;42.602;23.470;2022-09-21T15:11:01;2.63;;;1.90;;
11052;SDS011;55230;42.602;23.470;2022-09-21T15:16:33;4.33;;;1.93;;
11052;SDS011;55230;42.602;23.470;2022-09-21T15:19:13;7.70;;;2.40;;
11052;SDS011;55230;42.602;23.470;2022-09-21T15:21:42;7.50;;;2.13;;
11052;SDS011;55230;42.602;23.470;2022-09-21T15:24:21;2.40;;;1.87;;
11052;SDS011;55230;42.602;23.470;2022-09-21T15:26:51;3.00;;;1.93;;
11052;SDS011;55230;42.602;23.470;2022-09-21T15:29:23;3.47;;;2.10;;
11052;SDS011;55230;42.602;23.470;2022-09-21T15:31:51;2.87;;;2.43;;
11052;SDS011;55230;42.602;23.470;2022-09-21T15:34:20;2.60;;;2.03;;
11052;SDS011;55230;42.602;23.470;2022-09-21T15:36:48;2.40;;;2.20;;
11052;SDS011;55230;42.602;23.470;2022-09-21T15:39:23;2.60;;;2.30;;
11052;SDS011;55230;42.602;23.470;2022-09-21T15:44:49;2.23;;;2.07;;